createdAt,value
2017-12-02T00:01:44.557Z,12.55
2017-12-02T00:04:12.897Z,17.95
2017-12-02T00:06:40.477Z,10.95
2017-12-02T00:09:08.792Z,11.00
2017-12-02T00:11:38.446Z,7.72
2017-12-02T00:14:06.007Z,10.35
2017-12-02T00:16:33.571Z,11.02
2017-12-02T00:19:01.171Z,11.48
2017-12-02T00:21:28.776Z,10.80
2017-12-02T00:23:56.372Z,12.05
2017-12-02T00:26:24.716Z,9.80
2017-12-02T00:28:52.323Z,8.35
2017-12-02T00:31:20.650Z,12.63
2017-12-02T00:33:48.231Z,11.45
2017-12-02T00:36:15.838Z,10.93
2017-12-02T00:38:43.462Z,11.60
2017-12-02T00:41:11.784Z,9.63
2017-12-02T00:43:39.392Z,16.30
2017-12-02T00:46:07.008Z,16.40
2017-12-02T00:48:34.577Z,18.08
2017-12-02T00:51:02.183Z,17.25
2017-12-02T00:53:30.543Z,20.80
2017-12-02T00:55:58.113Z,19.62
2017-12-02T00:58:26.446Z,19.35
2017-12-02T01:00:54.050Z,19.48
2017-12-02T01:03:22.410Z,21.30
2017-12-02T01:05:50.021Z,18.65
2017-12-02T01:08:17.602Z,16.80
2017-12-02T01:10:45.189Z,15.05
2017-12-02T01:13:12.784Z,15.57
2017-12-02T01:15:41.109Z,15.45
2017-12-02T01:18:08.720Z,16.12
2017-12-02T01:20:37.043Z,13.60
2017-12-02T01:23:04.627Z,14.75
2017-12-02T01:25:32.190Z,9.98
2017-12-02T01:27:59.799Z,14.02
2017-12-02T01:30:27.366Z,13.27
2017-12-02T01:32:54.940Z,13.48
2017-12-02T01:35:22.534Z,12.48
2017-12-02T01:37:50.097Z,18.23
2017-12-02T01:40:17.700Z,14.52
2017-12-02T01:42:45.257Z,11.73
2017-12-02T01:45:12.842Z,17.05
2017-12-02T01:47:40.445Z,11.57
2017-12-02T01:50:08.028Z,13.70
2017-12-02T01:52:36.349Z,14.95
2017-12-02T01:55:03.941Z,14.18
2017-12-02T01:57:31.524Z,17.25
2017-12-02T01:59:59.850Z,14.30
2017-12-02T02:02:27.419Z,14.02
2017-12-02T02:04:55.007Z,17.30
2017-12-02T02:07:23.357Z,13.80
2017-12-02T02:09:50.932Z,11.93
2017-12-02T02:12:18.530Z,12.37
2017-12-02T02:14:46.106Z,15.43
2017-12-02T02:17:13.703Z,10.50
2017-12-02T02:19:41.273Z,11.93
2017-12-02T02:22:08.819Z,11.23
2017-12-02T02:24:36.433Z,10.50
2017-12-02T02:27:04.043Z,12.32
2017-12-02T02:29:31.626Z,10.32
2017-12-02T02:31:59.952Z,9.57
2017-12-02T02:34:27.546Z,9.55
2017-12-02T02:36:55.117Z,10.73
2017-12-02T02:39:22.712Z,10.10
2017-12-02T02:41:50.270Z,12.18
2017-12-02T02:44:17.839Z,13.73
2017-12-02T02:46:45.425Z,12.40
2017-12-02T02:49:13.008Z,15.55
2017-12-02T02:51:40.620Z,12.13
2017-12-02T02:54:08.204Z,14.43
2017-12-02T02:56:35.784Z,14.27
2017-12-02T02:59:03.336Z,10.18
2017-12-02T03:01:30.913Z,14.15
2017-12-02T03:03:58.483Z,10.55
2017-12-02T03:06:26.849Z,11.88
2017-12-02T03:08:54.408Z,14.07
2017-12-02T03:11:21.990Z,8.85
2017-12-02T03:13:50.400Z,10.73
2017-12-02T03:16:17.978Z,9.43
2017-12-02T03:18:45.589Z,9.73
2017-12-02T03:21:13.937Z,12.15
2017-12-02T03:23:41.568Z,8.95
2017-12-02T03:26:09.145Z,7.90
2017-12-02T03:28:36.774Z,10.20
2017-12-02T03:31:04.369Z,8.80
2017-12-02T03:33:31.964Z,10.30
2017-12-02T03:36:00.349Z,12.40
2017-12-02T03:38:28.683Z,9.25
2017-12-02T03:40:56.347Z,7.55
2017-12-02T03:43:23.964Z,15.90
2017-12-02T03:45:51.582Z,12.90
2017-12-02T03:48:19.187Z,12.82
2017-12-02T03:50:46.794Z,7.78
2017-12-02T03:53:14.421Z,9.48
2017-12-02T03:55:42.100Z,7.28
2017-12-02T03:58:09.681Z,8.68
2017-12-02T04:00:37.306Z,8.98
2017-12-02T04:03:04.943Z,8.73
2017-12-02T04:05:32.569Z,15.32
2017-12-02T04:08:00.184Z,9.85
2017-12-02T04:10:27.801Z,11.95
2017-12-02T04:12:55.397Z,11.35
2017-12-02T04:15:22.969Z,10.43
2017-12-02T04:17:50.602Z,10.88
2017-12-02T04:20:18.969Z,11.57
2017-12-02T04:22:47.333Z,13.77
2017-12-02T04:25:14.987Z,11.18
2017-12-02T04:27:42.568Z,12.48
2017-12-02T04:30:10.180Z,12.82
2017-12-02T04:32:37.821Z,14.95
2017-12-02T04:35:05.422Z,12.57
2017-12-02T04:37:33.020Z,9.50
2017-12-02T04:40:01.420Z,14.57
2017-12-02T04:42:29.012Z,10.15
2017-12-02T04:44:56.637Z,12.73
2017-12-02T04:47:24.259Z,8.27
2017-12-02T04:49:51.849Z,9.80
2017-12-02T04:52:20.205Z,10.98
2017-12-02T04:54:47.834Z,10.30
2017-12-02T04:57:15.434Z,9.43
2017-12-02T04:59:43.013Z,8.77
2017-12-02T05:02:11.382Z,9.63
2017-12-02T05:04:39.712Z,16.95
2017-12-02T05:07:07.309Z,12.63
2017-12-02T05:09:35.767Z,11.73
2017-12-02T05:12:03.348Z,13.25
2017-12-02T05:14:30.918Z,13.55
2017-12-02T05:16:59.316Z,10.43
2017-12-02T05:19:26.880Z,9.95
2017-12-02T05:21:54.456Z,13.20
2017-12-02T05:24:22.090Z,13.18
2017-12-02T05:26:49.702Z,16.98
2017-12-02T05:29:17.303Z,15.63
2017-12-02T05:31:45.682Z,16.12
2017-12-02T05:34:14.047Z,16.60
2017-12-02T05:36:41.636Z,27.33
2017-12-02T05:39:09.269Z,22.48
2017-12-02T05:41:37.632Z,21.67
2017-12-02T05:44:05.231Z,25.52
2017-12-02T05:46:32.849Z,21.27
2017-12-02T05:49:00.441Z,26.55
2017-12-02T05:51:28.818Z,21.62
2017-12-02T05:53:57.263Z,22.85
2017-12-02T05:56:24.848Z,22.45
2017-12-02T05:58:53.202Z,22.70
2017-12-02T06:01:20.823Z,20.60
2017-12-02T06:03:48.453Z,18.92
2017-12-02T06:06:16.822Z,18.17
2017-12-02T06:08:44.457Z,16.85
2017-12-02T06:11:12.225Z,14.43
2017-12-02T06:13:39.807Z,16.60
2017-12-02T06:16:07.429Z,19.37
2017-12-02T06:18:35.039Z,17.90
2017-12-02T06:21:03.428Z,18.52
2017-12-02T06:23:31.845Z,19.10
2017-12-02T06:25:59.424Z,21.95
2017-12-02T06:28:26.995Z,19.62
2017-12-02T06:30:54.646Z,19.52
2017-12-02T06:33:22.288Z,16.42
2017-12-02T06:35:49.895Z,16.37
2017-12-02T06:38:18.292Z,19.40
2017-12-02T06:40:46.638Z,14.73
2017-12-02T06:43:14.248Z,20.62
2017-12-02T06:45:41.883Z,14.60
2017-12-02T06:48:10.234Z,18.77
2017-12-02T06:50:37.847Z,13.80
2017-12-02T06:53:05.474Z,16.35
2017-12-02T06:55:33.098Z,16.80
2017-12-02T06:58:00.719Z,18.40
2017-12-02T07:00:28.338Z,14.93
2017-12-02T07:02:55.968Z,14.80
2017-12-02T07:05:23.573Z,15.55
2017-12-02T07:07:51.213Z,16.08
2017-12-02T07:10:18.828Z,20.25
2017-12-02T07:12:46.409Z,18.80
2017-12-02T07:15:14.073Z,14.32
2017-12-02T07:17:41.688Z,15.35
2017-12-02T07:20:10.090Z,15.43
2017-12-02T07:22:37.712Z,11.93
2017-12-02T07:25:05.305Z,15.13
2017-12-02T07:27:32.912Z,13.45
2017-12-02T07:30:00.571Z,14.65
2017-12-02T07:32:28.149Z,12.57
2017-12-02T07:34:55.725Z,11.80
2017-12-02T07:37:24.259Z,8.18
2017-12-02T07:39:51.850Z,6.18
2017-12-02T07:42:19.468Z,11.73
2017-12-02T07:44:47.062Z,8.25
2017-12-02T07:47:14.737Z,7.30
2017-12-02T07:49:42.292Z,7.22
2017-12-02T07:52:09.911Z,7.30
2017-12-02T07:54:37.511Z,6.35
2017-12-02T07:57:05.096Z,4.37
2017-12-02T07:59:33.506Z,6.45
2017-12-02T08:02:01.086Z,8.10
2017-12-02T08:04:28.699Z,4.97
2017-12-02T08:06:57.092Z,5.72
2017-12-02T08:09:25.445Z,5.12
2017-12-02T08:11:54.189Z,4.30
2017-12-02T08:14:21.823Z,6.20
2017-12-02T08:16:51.378Z,6.20
2017-12-02T08:19:19.008Z,7.80
2017-12-02T08:21:46.604Z,4.45
2017-12-02T08:24:14.178Z,7.65
2017-12-02T08:26:41.787Z,7.25
2017-12-02T08:29:09.401Z,6.93
2017-12-02T08:31:36.990Z,6.28
2017-12-02T08:34:04.587Z,8.15
2017-12-02T08:36:32.206Z,11.93
2017-12-02T08:38:59.784Z,7.93
2017-12-02T08:41:27.360Z,7.97
2017-12-02T08:43:54.980Z,7.22
2017-12-02T08:46:23.338Z,7.75
2017-12-02T08:48:50.924Z,9.35
2017-12-02T08:51:19.309Z,12.30
2017-12-02T08:53:46.874Z,10.18
2017-12-02T08:56:14.467Z,9.07
2017-12-02T08:58:42.069Z,14.90
2017-12-02T09:01:10.460Z,13.73
2017-12-02T09:03:38.796Z,12.07
2017-12-02T09:06:06.449Z,11.90
2017-12-02T09:08:34.039Z,12.10
2017-12-02T09:11:01.618Z,11.65
2017-12-02T09:13:30.033Z,19.55
2017-12-02T09:15:57.633Z,13.23
2017-12-02T09:18:25.213Z,6.40
2017-12-02T09:20:53.626Z,12.95
2017-12-02T09:23:21.219Z,5.65
2017-12-02T09:25:48.802Z,7.45
2017-12-02T09:28:16.446Z,6.72
2017-12-02T09:30:44.060Z,7.20
2017-12-02T09:33:11.639Z,4.50
2017-12-02T09:35:39.269Z,8.43
2017-12-02T09:38:06.877Z,6.03
2017-12-02T09:40:34.456Z,4.57
2017-12-02T09:43:02.083Z,5.50
2017-12-02T09:45:29.693Z,7.78
2017-12-02T09:47:58.039Z,5.80
2017-12-02T09:50:25.665Z,12.82
2017-12-02T09:52:53.263Z,8.40
2017-12-02T09:55:20.836Z,7.28
2017-12-02T09:57:48.503Z,6.00
2017-12-02T10:00:16.104Z,9.05
2017-12-02T10:02:43.685Z,6.82
2017-12-02T10:05:11.331Z,9.10
2017-12-02T10:07:38.913Z,5.60
2017-12-02T10:10:06.500Z,9.80
2017-12-02T10:12:34.147Z,7.68
2017-12-02T10:15:01.798Z,4.90
2017-12-02T10:17:29.381Z,6.65
2017-12-02T10:19:57.061Z,6.50
2017-12-02T10:22:25.415Z,9.13
2017-12-02T10:24:53.040Z,9.57
2017-12-02T10:27:20.663Z,8.57
2017-12-02T10:29:49.012Z,9.48
2017-12-02T10:32:16.599Z,7.30
2017-12-02T10:34:44.997Z,6.82
2017-12-02T10:37:12.586Z,6.00
2017-12-02T10:39:40.192Z,5.55
2017-12-02T10:42:07.813Z,7.87
2017-12-02T10:44:35.414Z,8.30
2017-12-02T10:47:03.045Z,6.72
2017-12-02T10:49:31.445Z,7.53
2017-12-02T10:51:59.024Z,7.40
2017-12-02T10:54:27.386Z,7.75
2017-12-02T10:56:55.007Z,6.55
2017-12-02T10:59:22.618Z,8.95
2017-12-02T11:01:50.954Z,7.75
2017-12-02T11:04:18.575Z,8.75
2017-12-02T11:06:47.013Z,12.20
2017-12-02T11:09:14.565Z,8.27
2017-12-02T11:11:42.192Z,10.52
2017-12-02T11:14:09.758Z,7.93
2017-12-02T11:16:37.311Z,12.85
2017-12-02T11:19:04.938Z,7.43
2017-12-02T11:21:33.290Z,7.72
2017-12-02T11:24:00.856Z,9.43
2017-12-02T11:26:28.484Z,13.62
2017-12-02T11:28:56.054Z,9.10
2017-12-02T11:31:23.596Z,14.40
2017-12-02T11:33:51.198Z,12.85
2017-12-02T11:36:18.786Z,19.20
2017-12-02T11:38:47.151Z,10.02
2017-12-02T11:41:14.748Z,14.55
2017-12-02T11:43:42.330Z,18.95
2017-12-02T11:46:09.900Z,12.27
2017-12-02T11:48:37.528Z,14.07
2017-12-02T11:51:05.112Z,16.83
2017-12-02T11:53:33.712Z,14.13
2017-12-02T11:56:01.320Z,13.35
2017-12-02T11:58:29.741Z,13.23
2017-12-02T12:00:57.289Z,14.48
2017-12-02T12:03:24.907Z,12.32
2017-12-02T12:05:53.238Z,12.23
2017-12-02T12:08:20.827Z,9.13
2017-12-02T12:10:48.414Z,10.32
2017-12-02T12:13:16.729Z,9.95
2017-12-02T12:15:44.300Z,8.48
2017-12-02T12:18:11.908Z,10.93
2017-12-02T12:20:39.475Z,13.05
2017-12-02T12:23:07.054Z,13.75
2017-12-02T12:25:34.688Z,13.00
2017-12-02T12:28:03.038Z,14.87
2017-12-02T12:30:30.610Z,13.62
2017-12-02T12:32:58.192Z,9.02
2017-12-02T12:35:26.563Z,12.00
2017-12-02T12:37:54.897Z,18.87
2017-12-02T12:40:22.501Z,12.10
2017-12-02T12:42:50.844Z,13.30
2017-12-02T12:45:18.403Z,14.57
2017-12-02T12:47:45.984Z,13.93
2017-12-02T12:50:13.588Z,14.30
2017-12-02T12:52:41.156Z,14.75
2017-12-02T12:55:08.784Z,15.18
2017-12-02T12:57:36.377Z,14.23
2017-12-02T13:00:03.950Z,16.50
2017-12-02T13:02:31.542Z,12.25
2017-12-02T13:04:59.121Z,16.73
2017-12-02T13:07:27.473Z,12.13
2017-12-02T13:09:55.070Z,20.27
2017-12-02T13:12:22.657Z,14.68
2017-12-02T13:14:50.231Z,17.00
2017-12-02T13:17:17.826Z,15.35
2017-12-02T13:19:45.389Z,17.58
2017-12-02T13:22:13.744Z,14.95
2017-12-02T13:24:41.343Z,16.95
2017-12-02T13:27:09.662Z,17.90
2017-12-02T13:29:37.217Z,17.45
2017-12-02T13:32:04.815Z,17.87
2017-12-02T13:34:32.392Z,14.18
2017-12-02T13:37:00.769Z,16.67
2017-12-02T13:39:28.398Z,16.27
2017-12-02T13:41:56.737Z,13.52
2017-12-02T13:44:24.345Z,16.17
2017-12-02T13:46:51.963Z,14.85
2017-12-02T13:49:19.526Z,16.73
2017-12-02T13:51:47.120Z,17.20
2017-12-02T13:54:14.744Z,14.90
2017-12-02T13:56:42.312Z,16.37
2017-12-02T13:59:09.890Z,16.73
2017-12-02T14:01:37.582Z,14.48
2017-12-02T14:04:05.166Z,15.75
2017-12-02T14:06:32.730Z,16.42
2017-12-02T14:09:00.342Z,15.00
2017-12-02T14:11:28.676Z,13.90
2017-12-02T14:13:56.245Z,16.48
2017-12-02T14:16:23.833Z,16.35
2017-12-02T14:18:52.189Z,17.87
2017-12-02T14:21:19.849Z,23.92
2017-12-02T14:23:47.435Z,29.12
2017-12-02T14:26:15.002Z,25.30
2017-12-02T14:28:42.584Z,32.75
2017-12-02T14:31:10.177Z,21.08
2017-12-02T14:33:37.762Z,21.52
2017-12-02T14:36:05.327Z,13.18
2017-12-02T14:38:32.952Z,19.17
2017-12-02T14:41:00.514Z,17.70
2017-12-02T14:43:28.073Z,16.17
2017-12-02T14:45:55.683Z,18.27
2017-12-02T14:48:23.237Z,16.20
2017-12-02T14:50:50.829Z,21.30
2017-12-02T14:53:19.186Z,16.70
2017-12-02T14:55:46.745Z,15.60
2017-12-02T14:58:14.300Z,18.30
2017-12-02T15:00:41.906Z,15.02
2017-12-02T15:03:09.465Z,15.63
2017-12-02T15:05:37.047Z,15.60
2017-12-02T15:08:04.683Z,15.45
2017-12-02T15:10:32.276Z,14.32
2017-12-02T15:12:59.839Z,12.77
2017-12-02T15:15:27.438Z,11.98
2017-12-02T15:17:54.999Z,14.93
2017-12-02T15:20:22.593Z,18.20
2017-12-02T15:22:50.184Z,17.98
2017-12-02T15:25:17.738Z,15.10
2017-12-02T15:27:46.943Z,16.02
2017-12-02T15:30:14.538Z,17.37
2017-12-02T15:32:42.088Z,18.50
2017-12-02T15:35:09.640Z,18.98
2017-12-02T15:37:37.235Z,13.43
2017-12-02T15:40:05.566Z,14.35
2017-12-02T15:42:33.897Z,16.98
2017-12-02T15:45:01.467Z,13.85
2017-12-02T15:47:29.329Z,13.55
2017-12-02T15:49:56.901Z,23.15
2017-12-02T15:52:24.526Z,24.83
2017-12-02T15:54:52.920Z,17.98
2017-12-02T15:57:21.249Z,20.27
2017-12-02T15:59:48.848Z,14.85
2017-12-02T16:02:17.196Z,11.82
2017-12-02T16:04:44.762Z,18.08
2017-12-02T16:07:12.372Z,11.40
2017-12-02T16:09:39.939Z,19.35
2017-12-02T16:12:07.540Z,14.40
2017-12-02T16:14:35.121Z,12.40
2017-12-02T16:17:03.444Z,12.80
2017-12-02T16:19:31.032Z,14.45
2017-12-02T16:21:58.623Z,15.50
2017-12-02T16:24:26.953Z,13.98
2017-12-02T16:26:54.523Z,15.55
2017-12-02T16:29:22.174Z,15.27
2017-12-02T16:31:49.750Z,17.08
2017-12-02T16:34:17.335Z,19.42
2017-12-02T16:36:45.738Z,19.42
2017-12-02T16:39:13.308Z,19.08
2017-12-02T16:41:40.892Z,46.90
2017-12-02T16:44:08.496Z,21.23
2017-12-02T16:46:36.841Z,16.73
2017-12-02T16:49:04.402Z,20.80
2017-12-02T16:51:32.011Z,17.12
2017-12-02T16:53:59.574Z,16.35
2017-12-02T16:56:27.219Z,15.27
2017-12-02T16:58:54.821Z,17.05
2017-12-02T17:01:22.461Z,12.57
2017-12-02T17:03:50.046Z,19.48
2017-12-02T17:06:17.635Z,11.30
2017-12-02T17:08:45.206Z,12.68
2017-12-02T17:11:12.769Z,15.18
2017-12-02T17:13:40.354Z,14.52
2017-12-02T17:16:07.952Z,14.02
2017-12-02T17:18:35.556Z,12.68
2017-12-02T17:21:03.941Z,13.43
2017-12-02T17:23:32.276Z,16.23
2017-12-02T17:25:59.858Z,17.60
2017-12-02T17:28:27.486Z,16.10
2017-12-02T17:30:55.075Z,11.80
2017-12-02T17:33:22.666Z,15.85
2017-12-02T17:35:51.029Z,11.52
2017-12-02T17:38:20.092Z,11.90
2017-12-02T17:40:47.701Z,11.82
2017-12-02T17:43:16.115Z,13.50
2017-12-02T17:45:44.501Z,8.32
2017-12-02T17:48:12.149Z,12.73
2017-12-02T17:50:39.750Z,11.05
2017-12-02T17:53:07.312Z,12.90
2017-12-02T17:55:34.899Z,11.85
2017-12-02T17:58:03.263Z,14.65
2017-12-02T18:00:31.595Z,14.00
2017-12-02T18:02:59.152Z,14.80
2017-12-02T18:05:26.736Z,15.65
2017-12-02T18:07:54.324Z,17.95
2017-12-02T18:10:22.677Z,21.87
2017-12-02T18:12:50.291Z,24.65
2017-12-02T18:15:17.856Z,11.27
2017-12-02T18:17:45.444Z,17.50
2017-12-02T18:20:13.020Z,13.32
2017-12-02T18:22:40.584Z,12.00
2017-12-02T18:25:08.145Z,19.70
2017-12-02T18:27:35.750Z,12.45
2017-12-02T18:30:03.315Z,16.65
2017-12-02T18:32:30.877Z,11.80
2017-12-02T18:34:58.475Z,11.07
2017-12-02T18:37:26.048Z,9.57
2017-12-02T18:39:53.605Z,14.23
2017-12-02T18:42:21.202Z,24.95
2017-12-02T18:44:48.770Z,15.68
2017-12-02T18:47:16.329Z,18.37
2017-12-02T18:49:43.911Z,13.20
2017-12-02T18:52:12.592Z,9.23
2017-12-02T18:54:40.192Z,14.02
2017-12-02T18:57:07.794Z,9.00
2017-12-02T18:59:35.361Z,14.18
2017-12-02T19:02:02.917Z,12.55
2017-12-02T19:04:30.529Z,12.23
2017-12-02T19:06:58.113Z,10.15
2017-12-02T19:09:26.619Z,9.88
2017-12-02T19:11:54.294Z,14.65
2017-12-02T19:14:22.145Z,10.75
2017-12-02T19:16:50.247Z,14.32
2017-12-02T19:19:18.650Z,11.55
2017-12-02T19:21:46.442Z,11.73
2017-12-02T19:24:14.554Z,10.60
2017-12-02T19:26:42.142Z,8.73
2017-12-02T19:29:09.687Z,9.40
2017-12-02T19:31:37.269Z,11.10
2017-12-02T19:34:04.860Z,13.10
2017-12-02T19:36:33.190Z,8.77
2017-12-02T19:39:00.769Z,10.65
2017-12-02T19:41:28.343Z,12.25
2017-12-02T19:43:56.688Z,12.23
2017-12-02T19:46:24.286Z,12.45
2017-12-02T19:48:52.648Z,12.75
2017-12-02T19:51:20.200Z,11.68
2017-12-02T19:53:47.757Z,15.20
2017-12-02T19:56:15.340Z,9.27
2017-12-02T19:58:43.677Z,7.85
2017-12-02T20:01:11.233Z,10.43
2017-12-02T20:03:38.833Z,9.70
2017-12-02T20:06:07.185Z,10.32
2017-12-02T20:08:34.759Z,9.55
2017-12-02T20:11:02.393Z,10.00
2017-12-02T20:13:30.003Z,10.20
2017-12-02T20:15:58.343Z,7.82
2017-12-02T20:18:25.936Z,10.55
2017-12-02T20:20:54.269Z,7.65
2017-12-02T20:23:21.816Z,10.02
2017-12-02T20:25:49.435Z,8.60
2017-12-02T20:28:17.738Z,8.80
2017-12-02T20:30:45.303Z,10.20
2017-12-02T20:33:12.893Z,9.23
2017-12-02T20:35:41.204Z,7.30
2017-12-02T20:38:09.585Z,9.85
2017-12-02T20:40:37.193Z,7.18
2017-12-02T20:43:04.785Z,9.73
2017-12-02T20:45:33.127Z,9.73
2017-12-02T20:48:00.728Z,9.25
2017-12-02T20:50:28.286Z,15.75
2017-12-02T20:52:55.833Z,13.60
2017-12-02T20:55:23.458Z,11.02
2017-12-02T20:57:51.023Z,13.20
2017-12-02T21:00:18.616Z,11.48
2017-12-02T21:02:46.207Z,13.05
2017-12-02T21:05:14.534Z,14.82
2017-12-02T21:07:42.116Z,13.43
2017-12-02T21:10:09.715Z,11.75
2017-12-02T21:12:38.053Z,12.93
2017-12-02T21:15:05.620Z,12.85
2017-12-02T21:17:33.208Z,9.60
2017-12-02T21:20:01.524Z,13.77
2017-12-02T21:22:29.079Z,12.20
2017-12-02T21:24:56.687Z,12.25
2017-12-02T21:27:24.266Z,13.90
2017-12-02T21:29:52.598Z,16.25
2017-12-02T21:32:20.973Z,18.65
2017-12-02T21:34:48.594Z,20.67
2017-12-02T21:37:16.372Z,17.52
2017-12-02T21:39:43.964Z,17.55
2017-12-02T21:42:11.522Z,19.77
2017-12-02T21:44:39.146Z,16.00
2017-12-02T21:47:06.826Z,11.63
2017-12-02T21:49:34.411Z,14.05
2017-12-02T21:52:01.969Z,13.40
2017-12-02T21:54:29.554Z,11.48
2017-12-02T21:56:57.121Z,14.10
2017-12-02T21:59:25.445Z,11.63
2017-12-02T22:01:53.030Z,14.43
2017-12-02T22:04:20.587Z,15.43
2017-12-02T22:06:48.923Z,14.80
2017-12-02T22:09:16.503Z,14.82
2017-12-02T22:11:44.110Z,17.58
2017-12-02T22:14:12.457Z,16.98
2017-12-02T22:16:40.095Z,17.65
2017-12-02T22:19:07.752Z,17.25
2017-12-02T22:21:36.083Z,17.83
2017-12-02T22:24:03.731Z,21.40
2017-12-02T22:26:31.303Z,18.60
2017-12-02T22:28:58.891Z,17.08
2017-12-02T22:31:26.489Z,24.37
2017-12-02T22:33:54.061Z,20.17
2017-12-02T22:36:21.639Z,16.77
2017-12-02T22:38:49.229Z,21.90
2017-12-02T22:41:17.602Z,21.55
2017-12-02T22:43:45.196Z,18.12
2017-12-02T22:46:12.786Z,20.83
2017-12-02T22:48:40.348Z,20.77
2017-12-02T22:51:07.938Z,18.20
2017-12-02T22:53:36.331Z,20.17
2017-12-02T22:56:03.944Z,21.98
2017-12-02T22:58:31.555Z,20.60
2017-12-02T23:00:59.168Z,21.83
2017-12-02T23:03:26.742Z,25.30
2017-12-02T23:05:54.311Z,19.45
2017-12-02T23:08:22.678Z,17.75
2017-12-02T23:10:50.283Z,20.98
2017-12-02T23:13:17.856Z,20.27
2017-12-02T23:15:45.482Z,19.60
2017-12-02T23:18:13.831Z,21.23
2017-12-02T23:20:41.406Z,28.92
2017-12-02T23:23:09.783Z,17.87
2017-12-02T23:25:38.157Z,22.87
2017-12-02T23:28:05.740Z,21.02
2017-12-02T23:30:34.122Z,22.08
2017-12-02T23:33:01.686Z,18.55
2017-12-02T23:35:29.236Z,18.95
2017-12-02T23:37:57.589Z,21.85
2017-12-02T23:40:25.156Z,21.95
2017-12-02T23:42:53.507Z,20.58
2017-12-02T23:45:21.105Z,19.55
2017-12-02T23:47:49.437Z,21.48
2017-12-02T23:50:17.021Z,18.77
2017-12-02T23:52:44.616Z,20.02
2017-12-02T23:55:12.209Z,21.12
2017-12-02T23:57:39.759Z,22.30
